createdAt,value
2022-11-18T00:02:06.195Z,14.58
2022-11-18T00:04:32.790Z,13.97
2022-11-18T00:06:59.607Z,14.21
2022-11-18T00:09:26.186Z,13.33
2022-11-18T00:12:11.339Z,13.56
2022-11-18T00:14:37.885Z,13.62
2022-11-18T00:17:06.829Z,14.15
2022-11-18T00:19:34.761Z,14.00
2022-11-18T00:22:02.658Z,13.27
2022-11-18T00:24:29.655Z,13.58
2022-11-18T00:26:56.313Z,14.45
2022-11-18T00:29:23.958Z,13.62
2022-11-18T00:31:50.521Z,13.64
2022-11-18T00:34:18.920Z,13.84
2022-11-18T00:36:46.469Z,13.96
2022-11-18T00:39:16.739Z,14.41
2022-11-18T00:42:03.240Z,14.14
2022-11-18T00:44:30.911Z,13.13
2022-11-18T00:46:58.097Z,12.63
2022-11-18T00:49:24.721Z,13.08
2022-11-18T00:51:51.491Z,12.80
2022-11-18T00:54:18.802Z,13.08
2022-11-18T00:56:45.399Z,13.25
2022-11-18T00:59:11.991Z,13.40
2022-11-18T01:01:38.684Z,13.13
2022-11-18T01:04:05.325Z,13.01
2022-11-18T01:06:38.493Z,12.77
2022-11-18T01:09:05.070Z,12.95
2022-11-18T01:11:50.322Z,12.48
2022-11-18T01:14:17.520Z,13.38
2022-11-18T01:16:44.153Z,13.41
2022-11-18T01:19:11.626Z,13.13
2022-11-18T01:21:38.208Z,13.47
2022-11-18T01:24:05.218Z,13.24
2022-11-18T01:26:31.761Z,13.51
2022-11-18T01:28:58.658Z,13.49
2022-11-18T01:31:25.353Z,13.12
2022-11-18T01:33:52.169Z,13.12
2022-11-18T01:36:20.121Z,13.30
2022-11-18T01:38:47.210Z,13.16
2022-11-18T01:41:14.505Z,12.18
2022-11-18T01:43:59.202Z,12.50
2022-11-18T01:46:28.790Z,12.70
2022-11-18T01:49:08.032Z,13.07
2022-11-18T01:51:38.960Z,12.56
2022-11-18T01:54:09.903Z,12.59
2022-11-18T01:56:43.922Z,12.27
2022-11-18T01:59:18.158Z,13.28
2022-11-18T02:01:45.654Z,13.25
2022-11-18T02:04:13.948Z,13.98
2022-11-18T02:06:42.488Z,13.31
2022-11-18T02:09:09.469Z,12.68
2022-11-18T02:11:51.618Z,12.81
2022-11-18T02:14:40.229Z,12.23
2022-11-18T02:17:25.628Z,12.24
2022-11-18T02:20:30.133Z,12.02
2022-11-18T02:23:18.287Z,12.36
2022-11-18T02:26:11.240Z,12.08
2022-11-18T02:29:07.075Z,12.22
2022-11-18T02:31:45.067Z,12.33
2022-11-18T02:34:29.685Z,13.35
2022-11-18T02:37:08.096Z,12.67
2022-11-18T02:39:39.656Z,12.42
2022-11-18T02:42:11.856Z,13.29
2022-11-18T02:44:45.904Z,13.63
2022-11-18T02:47:15.459Z,13.34
2022-11-18T02:49:47.158Z,12.90
2022-11-18T02:52:16.806Z,12.63
2022-11-18T02:54:46.364Z,12.88
2022-11-18T02:57:15.276Z,12.81
2022-11-18T02:59:42.389Z,12.96
2022-11-18T03:02:15.977Z,13.05
2022-11-18T03:04:44.061Z,12.50
2022-11-18T03:07:19.999Z,12.50
2022-11-18T03:09:51.197Z,11.97
2022-11-18T03:12:20.737Z,12.49
2022-11-18T03:15:15.642Z,12.33
2022-11-18T03:17:56.988Z,12.50
2022-11-18T03:20:29.290Z,12.16
2022-11-18T03:23:14.194Z,12.60
2022-11-18T03:25:44.502Z,12.81
2022-11-18T03:28:38.676Z,12.99
2022-11-18T03:31:08.431Z,12.15
2022-11-18T03:33:40.454Z,12.58
2022-11-18T03:36:11.251Z,12.50
2022-11-18T03:38:43.372Z,13.23
2022-11-18T03:41:14.287Z,13.10
2022-11-18T03:43:50.211Z,12.63
2022-11-18T03:46:22.805Z,12.91
2022-11-18T03:48:55.856Z,12.22
2022-11-18T03:51:29.470Z,11.93
2022-11-18T03:54:17.570Z,12.12
2022-11-18T03:56:51.323Z,12.62
2022-11-18T03:59:23.955Z,12.71
2022-11-18T04:01:56.328Z,11.85
2022-11-18T04:04:25.426Z,11.20
2022-11-18T04:07:13.015Z,11.91
2022-11-18T04:09:47.823Z,12.09
2022-11-18T04:12:18.055Z,12.25
2022-11-18T04:14:47.955Z,11.88
2022-11-18T04:17:17.009Z,12.05
2022-11-18T04:19:43.701Z,11.24
2022-11-18T04:22:11.562Z,11.99
2022-11-18T04:24:38.616Z,11.82
2022-11-18T04:27:06.528Z,11.69
2022-11-18T04:29:33.754Z,11.67
2022-11-18T04:32:01.702Z,11.33
2022-11-18T04:34:28.693Z,12.38
2022-11-18T04:36:55.812Z,12.61
2022-11-18T04:39:22.883Z,12.01
2022-11-18T04:41:56.243Z,11.98
2022-11-18T04:44:31.125Z,11.47
2022-11-18T04:47:00.447Z,11.35
2022-11-18T04:49:28.011Z,11.83
2022-11-18T04:51:55.718Z,11.77
2022-11-18T04:54:24.228Z,12.62
2022-11-18T04:56:51.658Z,12.32
2022-11-18T04:59:21.524Z,11.91
2022-11-18T05:01:49.877Z,11.01
2022-11-18T05:04:20.919Z,11.78
2022-11-18T05:06:47.562Z,12.39
2022-11-18T05:09:14.698Z,11.88
2022-11-18T05:12:00.161Z,11.84
2022-11-18T05:14:27.892Z,11.98
2022-11-18T05:16:55.752Z,12.15
2022-11-18T05:19:23.300Z,11.99
2022-11-18T05:21:50.287Z,11.75
2022-11-18T05:24:16.890Z,12.08
2022-11-18T05:26:43.471Z,11.80
2022-11-18T05:29:10.494Z,11.12
2022-11-18T05:31:37.555Z,10.77
2022-11-18T05:34:04.292Z,10.80
2022-11-18T05:36:30.820Z,11.10
2022-11-18T05:39:00.145Z,11.49
2022-11-18T05:41:45.637Z,11.63
2022-11-18T05:44:12.266Z,11.67
2022-11-18T05:46:38.880Z,11.09
2022-11-18T05:49:05.791Z,11.21
2022-11-18T05:51:32.325Z,11.61
2022-11-18T05:53:59.067Z,11.69
2022-11-18T05:56:34.557Z,12.25
2022-11-18T05:59:01.210Z,11.63
2022-11-18T06:01:32.561Z,11.78
2022-11-18T06:04:00.472Z,12.32
2022-11-18T06:06:27.202Z,12.09
2022-11-18T06:09:05.153Z,11.94
2022-11-18T06:11:39.881Z,11.72
2022-11-18T06:14:10.999Z,11.48
2022-11-18T06:16:42.942Z,11.50
2022-11-18T06:19:09.647Z,11.53
2022-11-18T06:21:36.467Z,11.52
2022-11-18T06:24:03.501Z,11.50
2022-11-18T06:26:30.240Z,11.82
2022-11-18T06:28:57.530Z,12.20
2022-11-18T06:31:24.117Z,11.93
2022-11-18T06:33:50.877Z,11.42
2022-11-18T06:36:17.516Z,11.25
2022-11-18T06:38:44.074Z,11.02
2022-11-18T06:41:11.019Z,11.83
2022-11-18T06:43:42.040Z,11.70
2022-11-18T06:46:31.401Z,11.97
2022-11-18T06:48:58.965Z,11.30
2022-11-18T06:51:26.123Z,11.33
2022-11-18T06:53:53.482Z,11.17
2022-11-18T06:56:21.850Z,11.14
2022-11-18T06:58:53.200Z,11.39
2022-11-18T07:01:22.824Z,10.48
2022-11-18T07:03:49.658Z,10.50
2022-11-18T07:06:24.777Z,11.22
2022-11-18T07:08:52.465Z,11.59
2022-11-18T07:11:21.763Z,10.79
2022-11-18T07:13:48.541Z,11.52
2022-11-18T07:16:20.627Z,11.64
2022-11-18T07:18:48.915Z,12.09
2022-11-18T07:21:20.740Z,11.50
2022-11-18T07:23:48.125Z,11.48
2022-11-18T07:26:16.091Z,11.17
2022-11-18T07:28:43.195Z,10.95
2022-11-18T07:31:11.687Z,10.77
2022-11-18T07:33:39.407Z,9.94
2022-11-18T07:36:07.777Z,10.62
2022-11-18T07:38:35.001Z,10.74
2022-11-18T07:41:16.380Z,9.88
2022-11-18T07:43:43.704Z,10.60
2022-11-18T07:46:15.535Z,9.91
2022-11-18T07:48:43.557Z,9.74
2022-11-18T07:51:11.687Z,10.35
2022-11-18T07:53:38.652Z,10.00
2022-11-18T07:56:08.094Z,10.69
2022-11-18T07:58:35.704Z,11.67
2022-11-18T08:01:20.607Z,12.19
2022-11-18T08:03:47.780Z,12.01
2022-11-18T08:06:17.076Z,10.98
2022-11-18T08:08:44.526Z,10.65
2022-11-18T08:11:18.850Z,11.17
2022-11-18T08:13:48.353Z,9.97
2022-11-18T08:16:20.962Z,9.71
2022-11-18T08:18:47.734Z,9.21
2022-11-18T08:21:17.543Z,10.19
2022-11-18T08:23:49.865Z,10.15
2022-11-18T08:26:16.530Z,10.63
2022-11-18T08:28:44.376Z,10.16
2022-11-18T08:31:20.024Z,10.24
2022-11-18T08:33:47.017Z,10.61
2022-11-18T08:36:17.824Z,11.42
2022-11-18T08:38:44.800Z,11.45
2022-11-18T08:41:14.416Z,10.71
2022-11-18T08:43:41.900Z,9.80
2022-11-18T08:46:08.575Z,10.02
2022-11-18T08:48:35.185Z,9.65
2022-11-18T08:51:02.719Z,10.07
2022-11-18T08:53:29.318Z,9.74
2022-11-18T08:56:00.599Z,10.21
2022-11-18T08:58:28.259Z,10.48
2022-11-18T09:00:55.241Z,9.71
2022-11-18T09:03:22.726Z,10.23
2022-11-18T09:05:49.793Z,10.38
2022-11-18T09:08:17.333Z,9.95
2022-11-18T09:10:44.014Z,9.61
2022-11-18T09:13:53.390Z,10.29
2022-11-18T09:15:59.151Z,9.90
2022-11-18T09:18:26.452Z,10.24
2022-11-18T09:21:08.402Z,9.70
2022-11-18T09:23:37.838Z,9.93
2022-11-18T09:26:08.518Z,10.29
2022-11-18T09:28:35.473Z,10.78
2022-11-18T09:31:07.850Z,11.27
2022-11-18T09:33:35.583Z,11.17
2022-11-18T09:36:02.820Z,11.00
2022-11-18T09:38:30.837Z,10.77
2022-11-18T09:41:10.165Z,11.00
2022-11-18T09:44:14.429Z,10.25
2022-11-18T09:47:00.034Z,10.37
2022-11-18T09:49:30.809Z,9.95
2022-11-18T09:52:02.520Z,10.59
2022-11-18T09:54:35.731Z,9.71
2022-11-18T09:57:03.902Z,9.35
2022-11-18T09:59:32.462Z,10.24
2022-11-18T10:02:26.860Z,9.48
2022-11-18T10:04:56.125Z,10.51
2022-11-18T10:07:44.115Z,10.56
2022-11-18T10:10:17.190Z,9.57
2022-11-18T10:13:02.406Z,10.04
2022-11-18T10:15:53.818Z,10.65
2022-11-18T10:19:00.362Z,10.50
2022-11-18T10:21:54.683Z,10.85
2022-11-18T10:24:27.461Z,11.37
2022-11-18T10:26:56.537Z,11.02
2022-11-18T10:29:23.725Z,10.75
2022-11-18T10:32:08.266Z,10.73
2022-11-18T10:34:45.853Z,11.24
2022-11-18T10:37:38.732Z,11.19
2022-11-18T10:40:25.559Z,11.30
2022-11-18T10:42:52.190Z,11.65
2022-11-18T10:45:22.106Z,11.47
2022-11-18T10:48:15.925Z,11.08
2022-11-18T10:50:55.647Z,10.67
2022-11-18T10:53:34.602Z,11.24
2022-11-18T10:56:06.434Z,11.39
2022-11-18T10:58:37.717Z,11.10
2022-11-18T11:01:20.198Z,10.80
2022-11-18T11:04:04.599Z,10.92
2022-11-18T11:06:33.820Z,10.39
2022-11-18T11:09:21.962Z,10.45
2022-11-18T11:12:00.266Z,10.61
2022-11-18T11:14:47.055Z,10.58
2022-11-18T11:17:18.550Z,11.01
2022-11-18T11:20:04.305Z,11.03
2022-11-18T11:22:30.938Z,11.56
2022-11-18T11:24:58.019Z,11.69
2022-11-18T11:30:37.896Z,10.44
2022-11-18T11:33:14.134Z,10.87
2022-11-18T11:36:08.217Z,11.11
2022-11-18T11:39:11.617Z,10.45
2022-11-18T11:41:53.882Z,10.42
2022-11-18T11:44:39.115Z,10.75
2022-11-18T11:47:47.199Z,9.79
2022-11-18T11:50:59.983Z,9.77
2022-11-18T11:53:41.082Z,10.22
2022-11-18T11:56:35.560Z,10.05
2022-11-18T11:59:06.236Z,9.59
2022-11-18T12:02:03.647Z,9.74
2022-11-18T12:04:32.865Z,9.93
2022-11-18T12:07:00.372Z,9.84
2022-11-18T12:09:33.686Z,10.15
2022-11-18T12:12:36.334Z,9.81
2022-11-18T12:15:17.425Z,9.63
2022-11-18T12:18:11.917Z,10.05
2022-11-18T12:20:45.772Z,10.70
2022-11-18T12:23:23.254Z,10.55
2022-11-18T12:25:49.835Z,10.22
2022-11-18T12:28:43.855Z,10.40
2022-11-18T12:31:19.896Z,9.50
2022-11-18T12:33:54.177Z,9.08
2022-11-18T12:36:35.422Z,9.14
2022-11-18T12:39:37.435Z,8.90
2022-11-18T12:42:23.371Z,9.46
2022-11-18T12:44:52.262Z,10.19
2022-11-18T12:47:43.219Z,9.49
2022-11-18T12:50:12.829Z,9.85
2022-11-18T12:52:39.798Z,9.91
2022-11-18T12:55:18.457Z,10.17
2022-11-18T12:57:44.992Z,10.15
2022-11-18T13:00:17.860Z,10.04
2022-11-18T13:02:55.709Z,9.97
2022-11-18T13:05:25.293Z,9.66
2022-11-18T13:08:22.644Z,9.66
2022-11-18T13:11:14.522Z,9.27
2022-11-18T13:13:42.502Z,9.58
2022-11-18T13:16:38.452Z,9.28
2022-11-18T13:19:05.454Z,9.92
2022-11-18T13:21:50.805Z,9.21
2022-11-18T13:24:20.402Z,9.36
2022-11-18T13:26:52.949Z,9.28
2022-11-18T13:29:38.742Z,9.44
2022-11-18T13:32:24.049Z,9.41
2022-11-18T13:34:54.714Z,9.29
2022-11-18T13:37:24.083Z,9.87
2022-11-18T13:39:51.157Z,9.38
2022-11-18T13:42:25.658Z,9.76
2022-11-18T13:45:03.357Z,10.12
2022-11-18T13:47:51.790Z,10.61
2022-11-18T13:50:27.061Z,10.00
2022-11-18T13:53:05.316Z,9.73
2022-11-18T13:55:37.990Z,10.90
2022-11-18T13:58:30.793Z,10.71
2022-11-18T14:01:01.711Z,10.67
2022-11-18T14:03:34.566Z,10.70
2022-11-18T14:06:02.381Z,11.36
2022-11-18T14:08:34.697Z,10.61
2022-11-18T14:11:02.300Z,10.40
2022-11-18T14:13:49.199Z,9.52
2022-11-18T14:16:18.579Z,9.60
2022-11-18T14:18:47.482Z,8.90
2022-11-18T14:21:14.677Z,9.41
2022-11-18T14:23:43.346Z,9.12
2022-11-18T14:26:10.285Z,9.17
2022-11-18T14:28:38.300Z,9.34
2022-11-18T14:31:17.243Z,8.77
2022-11-18T14:34:05.745Z,9.54
2022-11-18T14:36:32.276Z,9.15
2022-11-18T14:39:19.763Z,9.39
2022-11-18T14:41:48.123Z,9.32
2022-11-18T14:44:15.683Z,9.86
2022-11-18T14:46:44.551Z,10.46
2022-11-18T14:49:15.820Z,9.89
2022-11-18T14:51:43.042Z,10.14
2022-11-18T14:54:23.835Z,21.48
2022-11-18T14:56:54.477Z,21.44
2022-11-18T14:59:21.449Z,24.47
2022-11-18T15:01:48.378Z,24.16
2022-11-18T15:04:17.175Z,26.52
2022-11-18T15:06:44.027Z,26.88
2022-11-18T15:09:12.456Z,27.97
2022-11-18T15:11:39.409Z,27.91
2022-11-18T15:14:05.984Z,26.34
2022-11-18T15:16:34.602Z,26.65
2022-11-18T15:19:03.950Z,15.45
2022-11-18T15:21:30.670Z,11.59
2022-11-18T15:23:58.070Z,10.71
2022-11-18T15:26:37.920Z,10.26
2022-11-18T15:29:05.373Z,9.78
2022-11-18T15:31:32.643Z,9.83
2022-11-18T15:34:05.057Z,9.45
2022-11-18T15:36:33.366Z,9.38
2022-11-18T15:39:00.523Z,9.38
2022-11-18T15:41:29.033Z,9.25
2022-11-18T15:43:58.207Z,9.11
2022-11-18T15:46:26.562Z,8.35
2022-11-18T15:48:58.186Z,8.97
2022-11-18T15:51:26.468Z,9.00
2022-11-18T15:53:53.670Z,9.15
2022-11-18T15:56:20.207Z,8.98
2022-11-18T15:58:58.622Z,9.01
2022-11-18T16:01:27.102Z,8.95
2022-11-18T16:03:54.200Z,8.92
2022-11-18T16:06:21.945Z,8.78
2022-11-18T16:08:49.765Z,8.82
2022-11-18T16:11:38.367Z,9.21
2022-11-18T16:14:06.557Z,9.32
2022-11-18T16:16:37.312Z,8.97
2022-11-18T16:19:07.459Z,8.25
2022-11-18T16:21:36.909Z,8.56
2022-11-18T16:24:06.065Z,8.36
2022-11-18T16:26:34.087Z,8.69
2022-11-18T16:29:01.528Z,8.80
2022-11-18T16:31:40.397Z,8.64
2022-11-18T16:34:21.979Z,8.96
2022-11-18T16:36:52.085Z,8.61
2022-11-18T16:39:24.874Z,8.95
2022-11-18T16:41:59.414Z,9.78
2022-11-18T16:44:28.943Z,9.62
2022-11-18T16:46:57.467Z,8.61
2022-11-18T16:49:27.439Z,8.30
2022-11-18T16:51:55.899Z,8.74
2022-11-18T16:54:27.268Z,8.28
2022-11-18T16:56:56.090Z,8.31
2022-11-18T16:59:30.963Z,8.59
2022-11-18T17:01:59.545Z,8.97
2022-11-18T17:04:28.610Z,9.09
2022-11-18T17:06:56.129Z,9.02
2022-11-18T17:09:24.672Z,8.78
2022-11-18T17:11:53.549Z,8.75
2022-11-18T17:14:21.913Z,8.52
2022-11-18T17:16:49.253Z,8.59
2022-11-18T17:19:18.919Z,9.25
2022-11-18T17:21:47.088Z,8.68
2022-11-18T17:24:16.080Z,8.17
2022-11-18T17:26:44.166Z,8.71
2022-11-18T17:29:11.928Z,8.67
2022-11-18T17:31:39.229Z,8.79
2022-11-18T17:34:06.000Z,8.56
2022-11-18T17:36:32.582Z,8.42
2022-11-18T17:39:00.336Z,8.59
2022-11-18T17:41:47.507Z,8.73
2022-11-18T17:44:16.601Z,8.53
2022-11-18T17:46:43.945Z,8.57
2022-11-18T17:49:15.915Z,8.23
2022-11-18T17:51:42.790Z,8.07
2022-11-18T17:54:10.226Z,8.44
2022-11-18T17:56:38.590Z,9.32
2022-11-18T17:59:05.166Z,9.05
2022-11-18T18:01:31.854Z,8.47
2022-11-18T18:03:58.942Z,8.13
2022-11-18T18:06:26.712Z,7.91
2022-11-18T18:08:59.756Z,8.12
2022-11-18T18:11:27.265Z,8.42
2022-11-18T18:14:12.429Z,8.49
2022-11-18T18:16:44.697Z,8.47
2022-11-18T18:19:14.203Z,9.07
2022-11-18T18:21:41.403Z,9.01
2022-11-18T18:24:08.949Z,8.42
2022-11-18T18:26:35.662Z,8.42
2022-11-18T18:29:03.458Z,8.02
2022-11-18T18:31:34.284Z,8.16
2022-11-18T18:34:04.422Z,8.15
2022-11-18T18:36:32.004Z,8.31
2022-11-18T18:38:59.442Z,8.42
2022-11-18T18:41:26.025Z,8.09
2022-11-18T18:43:52.845Z,8.05
2022-11-18T18:46:34.527Z,8.27
2022-11-18T18:49:13.640Z,8.75
2022-11-18T18:51:42.950Z,7.88
2022-11-18T18:54:11.798Z,7.82
2022-11-18T18:56:38.831Z,8.90
2022-11-18T18:59:06.299Z,8.59
2022-11-18T19:01:33.670Z,8.96
2022-11-18T19:04:03.614Z,8.50
2022-11-18T19:09:20.843Z,9.03
2022-11-18T19:12:06.862Z,8.14
2022-11-18T19:14:35.206Z,7.77
2022-11-18T19:17:09.606Z,8.01
2022-11-18T19:19:57.104Z,8.30
2022-11-18T19:22:24.273Z,7.96
2022-11-18T19:24:51.709Z,8.26
2022-11-18T19:27:19.798Z,8.81
2022-11-18T19:29:46.409Z,8.98
2022-11-18T19:32:13.496Z,8.62
2022-11-18T19:34:40.091Z,9.05
2022-11-18T19:37:06.623Z,9.00
2022-11-18T19:39:33.530Z,8.76
2022-11-18T19:42:00.099Z,9.03
2022-11-18T19:44:27.022Z,9.24
2022-11-18T19:46:53.630Z,9.21
2022-11-18T19:49:20.556Z,9.31
2022-11-18T19:51:47.415Z,8.95
2022-11-18T19:54:14.231Z,8.64
2022-11-18T19:56:40.879Z,8.40
2022-11-18T19:59:07.493Z,8.07
2022-11-18T20:01:34.283Z,8.26
2022-11-18T20:04:05.608Z,8.32
2022-11-18T20:06:34.705Z,8.70
2022-11-18T20:09:01.828Z,8.48
2022-11-18T20:11:28.684Z,8.36
2022-11-18T20:13:55.501Z,8.10
2022-11-18T20:16:24.757Z,7.83
2022-11-18T20:18:54.301Z,8.09
2022-11-18T20:21:22.235Z,8.15
2022-11-18T20:23:56.040Z,7.50
2022-11-18T20:26:26.117Z,7.63
2022-11-18T20:28:57.249Z,7.88
2022-11-18T20:31:25.509Z,8.26
2022-11-18T20:33:53.787Z,8.71
2022-11-18T20:36:28.735Z,8.54
2022-11-18T20:38:58.285Z,8.47
2022-11-18T20:41:25.925Z,8.00
2022-11-18T20:43:53.367Z,7.94
2022-11-18T20:46:22.251Z,7.84
2022-11-18T20:48:50.206Z,8.01
2022-11-18T20:51:19.874Z,8.43
2022-11-18T20:53:47.458Z,8.45
2022-11-18T20:56:18.514Z,8.55
2022-11-18T20:58:46.173Z,8.52
2022-11-18T21:01:12.865Z,8.46
2022-11-18T21:03:40.860Z,8.04
2022-11-18T21:06:13.977Z,8.43
2022-11-18T21:08:42.398Z,8.66
2022-11-18T21:11:11.393Z,8.42
2022-11-18T21:13:58.134Z,8.35
2022-11-18T21:16:26.075Z,8.18
2022-11-18T21:18:53.434Z,8.69
2022-11-18T21:21:38.756Z,8.32
2022-11-18T21:24:05.790Z,8.65
2022-11-18T21:26:34.000Z,8.29
2022-11-18T21:29:03.146Z,7.56
2022-11-18T21:31:31.387Z,7.47
2022-11-18T21:33:58.026Z,7.12
2022-11-18T21:36:26.309Z,7.69
2022-11-18T21:38:53.324Z,7.64
2022-11-18T21:41:20.261Z,7.84
2022-11-18T21:44:05.194Z,7.90
2022-11-18T21:46:35.165Z,8.12
2022-11-18T21:49:02.561Z,7.75
2022-11-18T21:51:32.055Z,7.85
2022-11-18T21:54:00.064Z,7.79
2022-11-18T21:56:29.330Z,8.18
2022-11-18T21:58:57.002Z,8.44
2022-11-18T22:01:29.389Z,7.66
2022-11-18T22:03:58.231Z,7.98
2022-11-18T22:06:26.149Z,8.45
2022-11-18T22:08:53.217Z,8.05
2022-11-18T22:11:22.659Z,8.26
2022-11-18T22:13:53.862Z,7.65
2022-11-18T22:16:22.939Z,8.34
2022-11-18T22:18:56.486Z,9.08
2022-11-18T22:21:26.687Z,8.12
2022-11-18T22:23:57.159Z,8.33
2022-11-18T22:26:23.855Z,8.49
2022-11-18T22:28:56.262Z,8.60
2022-11-18T22:31:25.185Z,8.92
2022-11-18T22:33:52.441Z,8.10
2022-11-18T22:36:22.609Z,8.14
2022-11-18T22:38:49.763Z,8.73
2022-11-18T22:41:38.231Z,8.65
2022-11-18T22:44:07.933Z,8.23
2022-11-18T22:46:36.201Z,8.92
2022-11-18T22:49:03.510Z,8.36
2022-11-18T22:51:30.354Z,8.70
2022-11-18T22:54:22.717Z,8.87
2022-11-18T22:57:06.042Z,8.22
2022-11-18T22:59:32.615Z,8.65
2022-11-18T23:01:59.299Z,8.28
2022-11-18T23:04:26.468Z,8.76
2022-11-18T23:06:53.081Z,8.93
2022-11-18T23:09:20.243Z,8.74
2022-11-18T23:12:06.022Z,8.73
2022-11-18T23:14:32.851Z,8.76
2022-11-18T23:17:00.444Z,9.09
2022-11-18T23:19:27.012Z,9.02
2022-11-18T23:21:53.582Z,9.37
2022-11-18T23:24:20.151Z,8.82
2022-11-18T23:26:47.518Z,9.01
2022-11-18T23:29:15.698Z,8.44
2022-11-18T23:31:44.493Z,9.22
2022-11-18T23:34:12.986Z,9.18
2022-11-18T23:36:40.452Z,9.50
2022-11-18T23:39:07.164Z,9.39
2022-11-18T23:41:34.371Z,9.15
2022-11-18T23:44:01.188Z,9.14
2022-11-18T23:46:27.825Z,8.90
2022-11-18T23:48:55.115Z,9.18
2022-11-18T23:51:23.520Z,8.76
2022-11-18T23:53:56.402Z,8.55
2022-11-18T23:56:25.685Z,9.02
2022-11-18T23:58:54.084Z,8.77
